sensor_id;sensor_type;location;lat;lon;timestamp;P1;durP1;ratioP1;P2;durP2;ratioP2
80707;SDS011;70222;49.204;-122.940;2023-11-22T00:01:06;4.78;;;1.40;;
80707;SDS011;70222;49.204;-122.940;2023-11-22T00:03:32;1.88;;;1.38;;
80707;SDS011;70222;49.204;-122.940;2023-11-22T00:05:59;2.78;;;1.33;;
80707;SDS011;70222;49.204;-122.940;2023-11-22T00:08:26;2.13;;;1.30;;
80707;SDS011;70222;49.204;-122.940;2023-11-22T00:10:52;1.92;;;1.30;;
80707;SDS011;70222;49.204;-122.940;2023-11-22T00:13:18;3.53;;;1.80;;
80707;SDS011;70222;49.204;-122.940;2023-11-22T00:15:45;2.80;;;1.77;;
80707;SDS011;70222;49.204;-122.940;2023-11-22T00:18:11;1.67;;;1.20;;
80707;SDS011;70222;49.204;-122.940;2023-11-22T00:20:37;2.95;;;1.60;;
80707;SDS011;70222;49.204;-122.940;2023-11-22T00:23:03;3.15;;;1.75;;
80707;SDS011;70222;49.204;-122.940;2023-11-22T00:25:29;2.47;;;1.38;;
80707;SDS011;70222;49.204;-122.940;2023-11-22T00:27:55;1.95;;;1.50;;
80707;SDS011;70222;49.204;-122.940;2023-11-22T00:30:22;2.13;;;1.38;;
80707;SDS011;70222;49.204;-122.940;2023-11-22T00:32:48;1.02;;;0.95;;
80707;SDS011;70222;49.204;-122.940;2023-11-22T00:35:14;2.25;;;1.40;;
80707;SDS011;70222;49.204;-122.940;2023-11-22T00:37:40;3.05;;;1.38;;
80707;SDS011;70222;49.204;-122.940;2023-11-22T00:40:06;1.40;;;1.30;;
80707;SDS011;70222;49.204;-122.940;2023-11-22T00:42:36;2.83;;;1.65;;
80707;SDS011;70222;49.204;-122.940;2023-11-22T00:45:05;2.88;;;1.60;;
80707;SDS011;70222;49.204;-122.940;2023-11-22T00:47:32;2.30;;;1.33;;
80707;SDS011;70222;49.204;-122.940;2023-11-22T00:49:58;2.80;;;1.60;;
80707;SDS011;70222;49.204;-122.940;2023-11-22T00:52:24;3.25;;;1.85;;
80707;SDS011;70222;49.204;-122.940;2023-11-22T00:54:51;5.65;;;1.83;;
80707;SDS011;70222;49.204;-122.940;2023-11-22T00:57:17;2.20;;;1.50;;
80707;SDS011;70222;49.204;-122.940;2023-11-22T00:59:43;2.70;;;1.38;;
80707;SDS011;70222;49.204;-122.940;2023-11-22T01:02:09;2.28;;;1.23;;
80707;SDS011;70222;49.204;-122.940;2023-11-22T01:04:35;2.17;;;1.60;;
80707;SDS011;70222;49.204;-122.940;2023-11-22T01:07:02;1.90;;;1.70;;
80707;SDS011;70222;49.204;-122.940;2023-11-22T01:09:35;4.15;;;2.00;;
80707;SDS011;70222;49.204;-122.940;2023-11-22T01:12:01;2.35;;;1.63;;
80707;SDS011;70222;49.204;-122.940;2023-11-22T01:14:27;3.00;;;1.95;;
80707;SDS011;70222;49.204;-122.940;2023-11-22T01:16:53;3.97;;;2.58;;
80707;SDS011;70222;49.204;-122.940;2023-11-22T01:19:20;6.00;;;3.13;;
80707;SDS011;70222;49.204;-122.940;2023-11-22T01:21:46;5.40;;;2.60;;
80707;SDS011;70222;49.204;-122.940;2023-11-22T01:24:13;4.82;;;2.60;;
80707;SDS011;70222;49.204;-122.940;2023-11-22T01:26:39;5.00;;;3.15;;
80707;SDS011;70222;49.204;-122.940;2023-11-22T01:29:05;4.10;;;2.45;;
80707;SDS011;70222;49.204;-122.940;2023-11-22T01:31:31;2.50;;;1.60;;
80707;SDS011;70222;49.204;-122.940;2023-11-22T01:33:58;4.68;;;1.90;;
80707;SDS011;70222;49.204;-122.940;2023-11-22T01:36:25;3.40;;;1.90;;
80707;SDS011;70222;49.204;-122.940;2023-11-22T01:38:52;2.50;;;1.60;;
80707;SDS011;70222;49.204;-122.940;2023-11-22T01:41:19;3.53;;;1.70;;
80707;SDS011;70222;49.204;-122.940;2023-11-22T01:43:45;1.75;;;1.35;;
80707;SDS011;70222;49.204;-122.940;2023-11-22T01:46:17;2.95;;;1.85;;
80707;SDS011;70222;49.204;-122.940;2023-11-22T01:48:50;2.00;;;1.63;;
80707;SDS011;70222;49.204;-122.940;2023-11-22T01:51:19;3.83;;;1.73;;
80707;SDS011;70222;49.204;-122.940;2023-11-22T01:53:46;3.22;;;1.70;;
80707;SDS011;70222;49.204;-122.940;2023-11-22T01:58:39;4.18;;;2.10;;
80707;SDS011;70222;49.204;-122.940;2023-11-22T02:01:05;3.05;;;1.77;;
80707;SDS011;70222;49.204;-122.940;2023-11-22T02:03:32;2.55;;;1.80;;
80707;SDS011;70222;49.204;-122.940;2023-11-22T02:05:58;2.60;;;1.80;;
80707;SDS011;70222;49.204;-122.940;2023-11-22T02:08:25;2.90;;;1.77;;
80707;SDS011;70222;49.204;-122.940;2023-11-22T02:10:59;2.83;;;2.03;;
80707;SDS011;70222;49.204;-122.940;2023-11-22T02:13:29;3.42;;;2.83;;
80707;SDS011;70222;49.204;-122.940;2023-11-22T02:15:56;4.85;;;2.08;;
80707;SDS011;70222;49.204;-122.940;2023-11-22T02:18:27;2.35;;;1.75;;
80707;SDS011;70222;49.204;-122.940;2023-11-22T02:20:53;2.47;;;1.55;;
80707;SDS011;70222;49.204;-122.940;2023-11-22T02:23:19;2.65;;;1.67;;
80707;SDS011;70222;49.204;-122.940;2023-11-22T02:25:46;3.92;;;1.90;;
80707;SDS011;70222;49.204;-122.940;2023-11-22T02:28:12;2.15;;;1.50;;
80707;SDS011;70222;49.204;-122.940;2023-11-22T02:30:39;1.98;;;1.42;;
80707;SDS011;70222;49.204;-122.940;2023-11-22T02:33:05;3.72;;;1.90;;
80707;SDS011;70222;49.204;-122.940;2023-11-22T02:35:31;2.50;;;1.50;;
80707;SDS011;70222;49.204;-122.940;2023-11-22T02:37:58;2.40;;;1.38;;
80707;SDS011;70222;49.204;-122.940;2023-11-22T02:40:25;1.33;;;1.15;;
80707;SDS011;70222;49.204;-122.940;2023-11-22T02:42:52;4.32;;;1.73;;
80707;SDS011;70222;49.204;-122.940;2023-11-22T02:45:19;2.00;;;1.35;;
80707;SDS011;70222;49.204;-122.940;2023-11-22T02:47:49;2.35;;;1.30;;
80707;SDS011;70222;49.204;-122.940;2023-11-22T02:50:16;2.30;;;1.48;;
80707;SDS011;70222;49.204;-122.940;2023-11-22T02:52:42;3.53;;;1.75;;
80707;SDS011;70222;49.204;-122.940;2023-11-22T02:55:08;2.47;;;1.77;;
80707;SDS011;70222;49.204;-122.940;2023-11-22T02:57:35;5.05;;;2.13;;
80707;SDS011;70222;49.204;-122.940;2023-11-22T03:00:02;2.72;;;1.60;;
80707;SDS011;70222;49.204;-122.940;2023-11-22T03:02:45;2.97;;;1.90;;
80707;SDS011;70222;49.204;-122.940;2023-11-22T03:05:12;2.97;;;1.60;;
80707;SDS011;70222;49.204;-122.940;2023-11-22T03:10:06;2.80;;;1.75;;
80707;SDS011;70222;49.204;-122.940;2023-11-22T03:12:33;2.80;;;1.63;;
80707;SDS011;70222;49.204;-122.940;2023-11-22T03:14:59;3.28;;;1.90;;
80707;SDS011;70222;49.204;-122.940;2023-11-22T03:17:30;3.83;;;2.00;;
80707;SDS011;70222;49.204;-122.940;2023-11-22T03:19:58;3.58;;;2.15;;
80707;SDS011;70222;49.204;-122.940;2023-11-22T03:22:26;3.72;;;2.05;;
80707;SDS011;70222;49.204;-122.940;2023-11-22T03:24:56;2.92;;;1.95;;
80707;SDS011;70222;49.204;-122.940;2023-11-22T03:27:23;4.85;;;2.60;;
80707;SDS011;70222;49.204;-122.940;2023-11-22T03:29:50;3.45;;;2.00;;
80707;SDS011;70222;49.204;-122.940;2023-11-22T03:32:16;3.75;;;2.08;;
80707;SDS011;70222;49.204;-122.940;2023-11-22T03:34:42;3.50;;;1.85;;
80707;SDS011;70222;49.204;-122.940;2023-11-22T03:37:09;2.30;;;1.77;;
80707;SDS011;70222;49.204;-122.940;2023-11-22T03:39:35;4.63;;;2.35;;
80707;SDS011;70222;49.204;-122.940;2023-11-22T03:42:03;4.05;;;2.10;;
80707;SDS011;70222;49.204;-122.940;2023-11-22T03:44:30;3.20;;;2.08;;
80707;SDS011;70222;49.204;-122.940;2023-11-22T03:46:57;4.20;;;2.00;;
80707;SDS011;70222;49.204;-122.940;2023-11-22T03:51:49;4.93;;;2.25;;
80707;SDS011;70222;49.204;-122.940;2023-11-22T03:54:15;3.03;;;1.98;;
80707;SDS011;70222;49.204;-122.940;2023-11-22T03:56:42;2.47;;;1.75;;
80707;SDS011;70222;49.204;-122.940;2023-11-22T03:59:09;2.92;;;1.98;;
80707;SDS011;70222;49.204;-122.940;2023-11-22T04:01:35;3.67;;;2.03;;
80707;SDS011;70222;49.204;-122.940;2023-11-22T04:04:01;3.80;;;2.00;;
80707;SDS011;70222;49.204;-122.940;2023-11-22T04:06:29;5.43;;;2.22;;
80707;SDS011;70222;49.204;-122.940;2023-11-22T04:08:55;2.78;;;1.98;;
80707;SDS011;70222;49.204;-122.940;2023-11-22T04:11:21;3.60;;;2.00;;
80707;SDS011;70222;49.204;-122.940;2023-11-22T04:13:47;4.45;;;2.28;;
80707;SDS011;70222;49.204;-122.940;2023-11-22T04:16:13;3.70;;;2.03;;
80707;SDS011;70222;49.204;-122.940;2023-11-22T04:18:40;3.30;;;2.05;;
80707;SDS011;70222;49.204;-122.940;2023-11-22T04:21:06;4.88;;;1.88;;
80707;SDS011;70222;49.204;-122.940;2023-11-22T04:23:34;4.50;;;2.50;;
80707;SDS011;70222;49.204;-122.940;2023-11-22T04:26:00;4.90;;;2.10;;
80707;SDS011;70222;49.204;-122.940;2023-11-22T04:28:27;2.88;;;1.98;;
80707;SDS011;70222;49.204;-122.940;2023-11-22T04:30:56;3.03;;;2.28;;
80707;SDS011;70222;49.204;-122.940;2023-11-22T04:33:23;3.22;;;1.90;;
80707;SDS011;70222;49.204;-122.940;2023-11-22T04:35:50;3.33;;;2.17;;
80707;SDS011;70222;49.204;-122.940;2023-11-22T04:38:16;2.97;;;2.05;;
80707;SDS011;70222;49.204;-122.940;2023-11-22T04:40:43;4.00;;;1.80;;
80707;SDS011;70222;49.204;-122.940;2023-11-22T04:43:09;3.88;;;2.28;;
80707;SDS011;70222;49.204;-122.940;2023-11-22T04:45:36;3.55;;;2.03;;
80707;SDS011;70222;49.204;-122.940;2023-11-22T04:48:02;5.38;;;2.22;;
80707;SDS011;70222;49.204;-122.940;2023-11-22T04:50:35;4.35;;;2.10;;
80707;SDS011;70222;49.204;-122.940;2023-11-22T04:53:01;4.15;;;2.15;;
80707;SDS011;70222;49.204;-122.940;2023-11-22T04:55:27;3.13;;;2.05;;
80707;SDS011;70222;49.204;-122.940;2023-11-22T04:57:55;2.95;;;2.20;;
80707;SDS011;70222;49.204;-122.940;2023-11-22T05:00:26;3.97;;;2.20;;
80707;SDS011;70222;49.204;-122.940;2023-11-22T05:02:54;3.45;;;2.03;;
80707;SDS011;70222;49.204;-122.940;2023-11-22T05:05:20;1.90;;;1.60;;
80707;SDS011;70222;49.204;-122.940;2023-11-22T05:07:47;3.60;;;2.30;;
80707;SDS011;70222;49.204;-122.940;2023-11-22T05:10:15;3.05;;;2.17;;
80707;SDS011;70222;49.204;-122.940;2023-11-22T05:15:08;5.47;;;2.22;;
80707;SDS011;70222;49.204;-122.940;2023-11-22T05:17:35;3.47;;;2.13;;
80707;SDS011;70222;49.204;-122.940;2023-11-22T05:20:01;7.40;;;2.88;;
80707;SDS011;70222;49.204;-122.940;2023-11-22T05:22:27;3.53;;;2.20;;
80707;SDS011;70222;49.204;-122.940;2023-11-22T05:24:53;3.35;;;2.60;;
80707;SDS011;70222;49.204;-122.940;2023-11-22T05:27:20;5.15;;;2.30;;
80707;SDS011;70222;49.204;-122.940;2023-11-22T05:29:46;4.20;;;2.08;;
80707;SDS011;70222;49.204;-122.940;2023-11-22T05:32:12;3.05;;;1.70;;
80707;SDS011;70222;49.204;-122.940;2023-11-22T05:34:38;3.80;;;2.10;;
80707;SDS011;70222;49.204;-122.940;2023-11-22T05:37:06;2.78;;;2.08;;
80707;SDS011;70222;49.204;-122.940;2023-11-22T05:39:32;3.28;;;2.08;;
80707;SDS011;70222;49.204;-122.940;2023-11-22T05:41:58;3.15;;;2.08;;
80707;SDS011;70222;49.204;-122.940;2023-11-22T05:44:25;6.88;;;2.50;;
80707;SDS011;70222;49.204;-122.940;2023-11-22T05:46:51;3.47;;;2.35;;
80707;SDS011;70222;49.204;-122.940;2023-11-22T05:49:19;5.18;;;2.50;;
80707;SDS011;70222;49.204;-122.940;2023-11-22T05:51:45;4.65;;;2.42;;
80707;SDS011;70222;49.204;-122.940;2023-11-22T05:54:13;4.10;;;3.05;;
80707;SDS011;70222;49.204;-122.940;2023-11-22T05:56:41;4.57;;;2.30;;
80707;SDS011;70222;49.204;-122.940;2023-11-22T05:59:08;3.58;;;2.25;;
80707;SDS011;70222;49.204;-122.940;2023-11-22T06:01:34;2.90;;;2.30;;
80707;SDS011;70222;49.204;-122.940;2023-11-22T06:04:00;4.00;;;2.05;;
80707;SDS011;70222;49.204;-122.940;2023-11-22T06:06:26;5.82;;;2.53;;
80707;SDS011;70222;49.204;-122.940;2023-11-22T06:08:53;3.58;;;2.40;;
80707;SDS011;70222;49.204;-122.940;2023-11-22T06:11:20;5.70;;;2.78;;
80707;SDS011;70222;49.204;-122.940;2023-11-22T06:13:46;4.78;;;2.40;;
80707;SDS011;70222;49.204;-122.940;2023-11-22T06:18:39;4.72;;;2.20;;
80707;SDS011;70222;49.204;-122.940;2023-11-22T06:21:06;3.45;;;2.50;;
80707;SDS011;70222;49.204;-122.940;2023-11-22T06:23:34;5.22;;;3.13;;
80707;SDS011;70222;49.204;-122.940;2023-11-22T06:26:00;4.78;;;2.70;;
80707;SDS011;70222;49.204;-122.940;2023-11-22T06:28:26;4.72;;;2.95;;
80707;SDS011;70222;49.204;-122.940;2023-11-22T06:30:54;5.80;;;3.15;;
80707;SDS011;70222;49.204;-122.940;2023-11-22T06:33:20;4.50;;;2.53;;
80707;SDS011;70222;49.204;-122.940;2023-11-22T06:35:49;3.90;;;2.72;;
80707;SDS011;70222;49.204;-122.940;2023-11-22T06:38:15;4.07;;;2.42;;
80707;SDS011;70222;49.204;-122.940;2023-11-22T06:40:41;4.57;;;2.63;;
80707;SDS011;70222;49.204;-122.940;2023-11-22T06:43:08;3.90;;;2.42;;
80707;SDS011;70222;49.204;-122.940;2023-11-22T06:45:35;3.72;;;2.45;;
80707;SDS011;70222;49.204;-122.940;2023-11-22T06:48:01;4.95;;;2.78;;
80707;SDS011;70222;49.204;-122.940;2023-11-22T06:50:27;4.22;;;3.00;;
80707;SDS011;70222;49.204;-122.940;2023-11-22T06:52:53;5.07;;;2.72;;
80707;SDS011;70222;49.204;-122.940;2023-11-22T06:55:19;4.63;;;3.05;;
80707;SDS011;70222;49.204;-122.940;2023-11-22T06:57:46;6.20;;;3.00;;
80707;SDS011;70222;49.204;-122.940;2023-11-22T07:00:12;5.47;;;3.05;;
80707;SDS011;70222;49.204;-122.940;2023-11-22T07:02:38;5.28;;;2.92;;
80707;SDS011;70222;49.204;-122.940;2023-11-22T07:05:05;6.18;;;3.17;;
80707;SDS011;70222;49.204;-122.940;2023-11-22T07:07:34;5.63;;;2.50;;
80707;SDS011;70222;49.204;-122.940;2023-11-22T07:10:04;3.92;;;2.70;;
80707;SDS011;70222;49.204;-122.940;2023-11-22T07:12:31;4.90;;;2.70;;
80707;SDS011;70222;49.204;-122.940;2023-11-22T07:15:00;5.28;;;3.30;;
80707;SDS011;70222;49.204;-122.940;2023-11-22T07:17:26;5.43;;;3.05;;
80707;SDS011;70222;49.204;-122.940;2023-11-22T07:19:54;4.03;;;3.10;;
80707;SDS011;70222;49.204;-122.940;2023-11-22T07:22:20;6.25;;;3.10;;
80707;SDS011;70222;49.204;-122.940;2023-11-22T07:24:49;5.60;;;2.80;;
80707;SDS011;70222;49.204;-122.940;2023-11-22T07:27:20;3.88;;;2.38;;
80707;SDS011;70222;49.204;-122.940;2023-11-22T07:29:47;4.43;;;2.78;;
80707;SDS011;70222;49.204;-122.940;2023-11-22T07:32:13;3.55;;;2.33;;
80707;SDS011;70222;49.204;-122.940;2023-11-22T07:34:40;4.88;;;3.22;;
80707;SDS011;70222;49.204;-122.940;2023-11-22T07:37:07;4.43;;;2.83;;
80707;SDS011;70222;49.204;-122.940;2023-11-22T07:39:37;3.90;;;2.63;;
80707;SDS011;70222;49.204;-122.940;2023-11-22T07:42:04;5.95;;;2.88;;
80707;SDS011;70222;49.204;-122.940;2023-11-22T07:44:33;4.00;;;2.50;;
80707;SDS011;70222;49.204;-122.940;2023-11-22T07:47:01;5.97;;;2.92;;
80707;SDS011;70222;49.204;-122.940;2023-11-22T07:49:28;4.72;;;2.97;;
80707;SDS011;70222;49.204;-122.940;2023-11-22T07:51:55;5.78;;;3.45;;
80707;SDS011;70222;49.204;-122.940;2023-11-22T07:54:22;5.57;;;3.03;;
80707;SDS011;70222;49.204;-122.940;2023-11-22T07:56:49;5.63;;;3.38;;
80707;SDS011;70222;49.204;-122.940;2023-11-22T07:59:20;6.95;;;3.90;;
80707;SDS011;70222;49.204;-122.940;2023-11-22T08:01:46;7.35;;;3.35;;
80707;SDS011;70222;49.204;-122.940;2023-11-22T08:04:14;7.38;;;3.47;;
80707;SDS011;70222;49.204;-122.940;2023-11-22T08:06:43;6.50;;;4.05;;
80707;SDS011;70222;49.204;-122.940;2023-11-22T08:09:09;6.07;;;3.72;;
80707;SDS011;70222;49.204;-122.940;2023-11-22T08:11:35;7.25;;;4.00;;
80707;SDS011;70222;49.204;-122.940;2023-11-22T08:14:02;6.72;;;3.58;;
80707;SDS011;70222;49.204;-122.940;2023-11-22T08:16:30;6.65;;;3.70;;
80707;SDS011;70222;49.204;-122.940;2023-11-22T08:18:57;4.68;;;3.38;;
80707;SDS011;70222;49.204;-122.940;2023-11-22T08:21:26;4.47;;;2.83;;
80707;SDS011;70222;49.204;-122.940;2023-11-22T08:23:53;6.50;;;3.20;;
80707;SDS011;70222;49.204;-122.940;2023-11-22T08:26:19;3.47;;;2.70;;
80707;SDS011;70222;49.204;-122.940;2023-11-22T08:28:45;6.63;;;3.88;;
80707;SDS011;70222;49.204;-122.940;2023-11-22T08:31:13;6.63;;;4.00;;
80707;SDS011;70222;49.204;-122.940;2023-11-22T08:33:43;5.80;;;4.03;;
80707;SDS011;70222;49.204;-122.940;2023-11-22T08:36:10;4.97;;;3.42;;
80707;SDS011;70222;49.204;-122.940;2023-11-22T08:38:37;8.07;;;3.92;;
80707;SDS011;70222;49.204;-122.940;2023-11-22T08:41:09;5.50;;;3.67;;
80707;SDS011;70222;49.204;-122.940;2023-11-22T08:43:39;6.13;;;3.60;;
80707;SDS011;70222;49.204;-122.940;2023-11-22T08:46:05;5.75;;;3.40;;
80707;SDS011;70222;49.204;-122.940;2023-11-22T08:48:33;6.82;;;3.40;;
80707;SDS011;70222;49.204;-122.940;2023-11-22T08:51:00;5.75;;;3.38;;
80707;SDS011;70222;49.204;-122.940;2023-11-22T08:53:26;5.65;;;3.40;;
80707;SDS011;70222;49.204;-122.940;2023-11-22T08:55:55;5.63;;;3.30;;
80707;SDS011;70222;49.204;-122.940;2023-11-22T08:58:23;7.55;;;4.10;;
80707;SDS011;70222;49.204;-122.940;2023-11-22T09:00:49;5.68;;;3.50;;
80707;SDS011;70222;49.204;-122.940;2023-11-22T09:03:16;6.50;;;3.28;;
80707;SDS011;70222;49.204;-122.940;2023-11-22T09:05:45;5.82;;;3.38;;
80707;SDS011;70222;49.204;-122.940;2023-11-22T09:08:11;6.45;;;3.40;;
80707;SDS011;70222;49.204;-122.940;2023-11-22T09:10:42;5.15;;;3.20;;
80707;SDS011;70222;49.204;-122.940;2023-11-22T09:13:09;5.53;;;3.10;;
80707;SDS011;70222;49.204;-122.940;2023-11-22T09:15:36;6.85;;;4.20;;
80707;SDS011;70222;49.204;-122.940;2023-11-22T09:18:04;6.30;;;3.85;;
80707;SDS011;70222;49.204;-122.940;2023-11-22T09:20:31;5.90;;;3.15;;
80707;SDS011;70222;49.204;-122.940;2023-11-22T09:22:59;7.30;;;3.75;;
80707;SDS011;70222;49.204;-122.940;2023-11-22T09:25:34;7.38;;;3.33;;
80707;SDS011;70222;49.204;-122.940;2023-11-22T09:28:22;5.63;;;3.35;;
80707;SDS011;70222;49.204;-122.940;2023-11-22T09:31:08;5.85;;;3.38;;
80707;SDS011;70222;49.204;-122.940;2023-11-22T09:33:45;6.22;;;3.40;;
80707;SDS011;70222;49.204;-122.940;2023-11-22T09:36:18;5.95;;;3.30;;
80707;SDS011;70222;49.204;-122.940;2023-11-22T09:38:44;6.47;;;3.55;;
80707;SDS011;70222;49.204;-122.940;2023-11-22T09:41:10;6.10;;;3.58;;
80707;SDS011;70222;49.204;-122.940;2023-11-22T09:43:37;6.35;;;3.20;;
80707;SDS011;70222;49.204;-122.940;2023-11-22T09:46:05;5.43;;;3.40;;
80707;SDS011;70222;49.204;-122.940;2023-11-22T09:48:34;6.82;;;3.33;;
80707;SDS011;70222;49.204;-122.940;2023-11-22T09:51:09;6.88;;;3.17;;
80707;SDS011;70222;49.204;-122.940;2023-11-22T09:53:58;9.60;;;3.78;;
80707;SDS011;70222;49.204;-122.940;2023-11-22T09:56:27;6.03;;;3.65;;
80707;SDS011;70222;49.204;-122.940;2023-11-22T09:58:54;8.82;;;4.13;;
80707;SDS011;70222;49.204;-122.940;2023-11-22T10:01:22;8.00;;;3.85;;
80707;SDS011;70222;49.204;-122.940;2023-11-22T10:03:49;9.95;;;4.25;;
80707;SDS011;70222;49.204;-122.940;2023-11-22T10:06:16;9.38;;;4.13;;
80707;SDS011;70222;49.204;-122.940;2023-11-22T10:08:43;9.20;;;5.05;;
80707;SDS011;70222;49.204;-122.940;2023-11-22T10:11:12;8.40;;;4.20;;
80707;SDS011;70222;49.204;-122.940;2023-11-22T10:13:43;9.82;;;4.22;;
80707;SDS011;70222;49.204;-122.940;2023-11-22T10:16:11;11.13;;;5.03;;
80707;SDS011;70222;49.204;-122.940;2023-11-22T10:18:47;8.77;;;4.30;;
80707;SDS011;70222;49.204;-122.940;2023-11-22T10:23:49;9.38;;;4.28;;
80707;SDS011;70222;49.204;-122.940;2023-11-22T10:26:21;6.22;;;2.63;;
80707;SDS011;70222;49.204;-122.940;2023-11-22T10:28:51;6.90;;;3.30;;
80707;SDS011;70222;49.204;-122.940;2023-11-22T10:31:21;7.75;;;3.88;;
80707;SDS011;70222;49.204;-122.940;2023-11-22T10:36:14;7.90;;;3.80;;
80707;SDS011;70222;49.204;-122.940;2023-11-22T10:38:41;8.05;;;4.22;;
80707;SDS011;70222;49.204;-122.940;2023-11-22T10:41:11;8.10;;;3.92;;
80707;SDS011;70222;49.204;-122.940;2023-11-22T10:46:05;9.48;;;4.80;;
80707;SDS011;70222;49.204;-122.940;2023-11-22T10:48:32;6.53;;;3.83;;
80707;SDS011;70222;49.204;-122.940;2023-11-22T10:51:02;10.75;;;5.18;;
80707;SDS011;70222;49.204;-122.940;2023-11-22T10:53:32;9.90;;;4.72;;
80707;SDS011;70222;49.204;-122.940;2023-11-22T10:56:03;7.95;;;4.22;;
80707;SDS011;70222;49.204;-122.940;2023-11-22T10:58:39;11.23;;;5.18;;
80707;SDS011;70222;49.204;-122.940;2023-11-22T11:01:18;8.70;;;4.55;;
80707;SDS011;70222;49.204;-122.940;2023-11-22T11:03:55;10.82;;;5.40;;
80707;SDS011;70222;49.204;-122.940;2023-11-22T11:06:32;9.15;;;5.50;;
80707;SDS011;70222;49.204;-122.940;2023-11-22T11:09:03;8.40;;;4.75;;
80707;SDS011;70222;49.204;-122.940;2023-11-22T11:11:37;13.07;;;5.70;;
80707;SDS011;70222;49.204;-122.940;2023-11-22T11:14:07;9.98;;;4.68;;
80707;SDS011;70222;49.204;-122.940;2023-11-22T11:16:37;11.20;;;4.80;;
80707;SDS011;70222;49.204;-122.940;2023-11-22T11:19:07;8.10;;;4.40;;
80707;SDS011;70222;49.204;-122.940;2023-11-22T11:21:33;9.77;;;5.03;;
80707;SDS011;70222;49.204;-122.940;2023-11-22T11:23:59;6.43;;;3.45;;
80707;SDS011;70222;49.204;-122.940;2023-11-22T11:26:28;8.02;;;3.55;;
80707;SDS011;70222;49.204;-122.940;2023-11-22T11:28:57;7.05;;;3.78;;
80707;SDS011;70222;49.204;-122.940;2023-11-22T11:31:23;6.72;;;3.53;;
80707;SDS011;70222;49.204;-122.940;2023-11-22T11:36:24;4.55;;;2.70;;
80707;SDS011;70222;49.204;-122.940;2023-11-22T11:38:52;4.50;;;3.17;;
80707;SDS011;70222;49.204;-122.940;2023-11-22T11:41:25;4.18;;;2.25;;
80707;SDS011;70222;49.204;-122.940;2023-11-22T11:43:53;4.25;;;2.38;;
80707;SDS011;70222;49.204;-122.940;2023-11-22T11:46:19;4.70;;;2.60;;
80707;SDS011;70222;49.204;-122.940;2023-11-22T11:48:48;4.78;;;2.50;;
80707;SDS011;70222;49.204;-122.940;2023-11-22T11:51:22;3.38;;;2.28;;
80707;SDS011;70222;49.204;-122.940;2023-11-22T11:53:49;3.85;;;2.35;;
80707;SDS011;70222;49.204;-122.940;2023-11-22T11:56:15;4.18;;;2.58;;
80707;SDS011;70222;49.204;-122.940;2023-11-22T11:58:43;3.72;;;2.35;;
80707;SDS011;70222;49.204;-122.940;2023-11-22T12:01:13;3.55;;;2.28;;
80707;SDS011;70222;49.204;-122.940;2023-11-22T12:03:42;2.90;;;1.60;;
80707;SDS011;70222;49.204;-122.940;2023-11-22T12:06:18;3.97;;;2.22;;
80707;SDS011;70222;49.204;-122.940;2023-11-22T12:08:45;3.17;;;2.03;;
80707;SDS011;70222;49.204;-122.940;2023-11-22T12:11:12;3.45;;;1.80;;
80707;SDS011;70222;49.204;-122.940;2023-11-22T12:13:41;3.60;;;2.22;;
80707;SDS011;70222;49.204;-122.940;2023-11-22T12:16:14;3.40;;;2.10;;
80707;SDS011;70222;49.204;-122.940;2023-11-22T12:18:48;2.90;;;2.17;;
80707;SDS011;70222;49.204;-122.940;2023-11-22T12:21:15;3.83;;;2.22;;
80707;SDS011;70222;49.204;-122.940;2023-11-22T12:23:44;3.15;;;1.80;;
80707;SDS011;70222;49.204;-122.940;2023-11-22T12:26:12;3.20;;;1.60;;
80707;SDS011;70222;49.204;-122.940;2023-11-22T12:28:45;3.63;;;2.00;;
80707;SDS011;70222;49.204;-122.940;2023-11-22T12:31:13;3.28;;;2.03;;
80707;SDS011;70222;49.204;-122.940;2023-11-22T12:33:40;3.35;;;1.88;;
80707;SDS011;70222;49.204;-122.940;2023-11-22T12:36:08;3.50;;;2.15;;
80707;SDS011;70222;49.204;-122.940;2023-11-22T12:38:38;2.75;;;1.60;;
80707;SDS011;70222;49.204;-122.940;2023-11-22T12:41:05;2.22;;;1.60;;
80707;SDS011;70222;49.204;-122.940;2023-11-22T12:43:35;2.40;;;1.60;;
80707;SDS011;70222;49.204;-122.940;2023-11-22T12:46:04;2.05;;;1.52;;
80707;SDS011;70222;49.204;-122.940;2023-11-22T12:48:41;2.08;;;1.50;;
80707;SDS011;70222;49.204;-122.940;2023-11-22T12:51:14;2.72;;;1.90;;
80707;SDS011;70222;49.204;-122.940;2023-11-22T12:53:45;2.20;;;1.60;;
80707;SDS011;70222;49.204;-122.940;2023-11-22T12:56:12;2.78;;;1.50;;
80707;SDS011;70222;49.204;-122.940;2023-11-22T12:58:38;1.88;;;1.30;;
80707;SDS011;70222;49.204;-122.940;2023-11-22T13:01:04;2.53;;;1.60;;
80707;SDS011;70222;49.204;-122.940;2023-11-22T13:03:30;1.98;;;1.45;;
80707;SDS011;70222;49.204;-122.940;2023-11-22T13:05:57;1.50;;;1.40;;
80707;SDS011;70222;49.204;-122.940;2023-11-22T13:08:23;2.92;;;1.70;;
80707;SDS011;70222;49.204;-122.940;2023-11-22T13:10:54;2.30;;;1.30;;
80707;SDS011;70222;49.204;-122.940;2023-11-22T13:13:21;1.77;;;1.30;;
80707;SDS011;70222;49.204;-122.940;2023-11-22T13:15:47;1.90;;;1.60;;
80707;SDS011;70222;49.204;-122.940;2023-11-22T13:20:41;1.55;;;1.00;;
80707;SDS011;70222;49.204;-122.940;2023-11-22T13:23:08;2.28;;;1.33;;
80707;SDS011;70222;49.204;-122.940;2023-11-22T13:25:34;1.65;;;1.40;;
80707;SDS011;70222;49.204;-122.940;2023-11-22T13:28:01;1.55;;;1.20;;
80707;SDS011;70222;49.204;-122.940;2023-11-22T13:30:27;2.03;;;1.30;;
80707;SDS011;70222;49.204;-122.940;2023-11-22T13:32:54;1.77;;;1.30;;
80707;SDS011;70222;49.204;-122.940;2023-11-22T13:35:27;1.85;;;1.40;;
80707;SDS011;70222;49.204;-122.940;2023-11-22T13:37:59;2.22;;;1.33;;
80707;SDS011;70222;49.204;-122.940;2023-11-22T13:40:27;2.38;;;1.90;;
80707;SDS011;70222;49.204;-122.940;2023-11-22T13:42:56;2.05;;;1.70;;
80707;SDS011;70222;49.204;-122.940;2023-11-22T13:45:22;2.47;;;1.80;;
80707;SDS011;70222;49.204;-122.940;2023-11-22T13:47:49;1.85;;;1.35;;
80707;SDS011;70222;49.204;-122.940;2023-11-22T13:50:20;2.22;;;1.40;;
80707;SDS011;70222;49.204;-122.940;2023-11-22T13:52:52;2.13;;;1.50;;
80707;SDS011;70222;49.204;-122.940;2023-11-22T13:55:19;1.55;;;1.23;;
80707;SDS011;70222;49.204;-122.940;2023-11-22T13:57:52;2.85;;;1.40;;
80707;SDS011;70222;49.204;-122.940;2023-11-22T14:00:19;2.63;;;1.40;;
80707;SDS011;70222;49.204;-122.940;2023-11-22T14:02:48;2.22;;;1.40;;
80707;SDS011;70222;49.204;-122.940;2023-11-22T14:05:16;2.50;;;1.48;;
80707;SDS011;70222;49.204;-122.940;2023-11-22T14:07:43;2.03;;;1.40;;
80707;SDS011;70222;49.204;-122.940;2023-11-22T14:10:10;2.28;;;1.58;;
80707;SDS011;70222;49.204;-122.940;2023-11-22T14:12:37;2.47;;;1.30;;
80707;SDS011;70222;49.204;-122.940;2023-11-22T14:15:03;2.63;;;1.73;;
80707;SDS011;70222;49.204;-122.940;2023-11-22T14:17:30;3.35;;;1.80;;
80707;SDS011;70222;49.204;-122.940;2023-11-22T14:19:56;2.70;;;1.60;;
80707;SDS011;70222;49.204;-122.940;2023-11-22T14:22:23;3.83;;;1.98;;
80707;SDS011;70222;49.204;-122.940;2023-11-22T14:24:50;2.40;;;1.58;;
80707;SDS011;70222;49.204;-122.940;2023-11-22T14:27:19;2.03;;;1.42;;
80707;SDS011;70222;49.204;-122.940;2023-11-22T14:29:46;2.05;;;1.60;;
80707;SDS011;70222;49.204;-122.940;2023-11-22T14:32:16;3.50;;;2.17;;
80707;SDS011;70222;49.204;-122.940;2023-11-22T14:34:42;2.08;;;1.73;;
80707;SDS011;70222;49.204;-122.940;2023-11-22T14:37:12;2.30;;;1.52;;